»·PEaware :: SWA263 KSFO-KSAN

SWA263 :: KSFO-KSAN

FLIGHT INFORMATION

Flight Status: Arrived
Operator:
Southwest Airlines
More flights by this operator :: More flights under this callsign
Pilot: Josh R. (20192)
Aircraft: BOEING 737-200
(B732)
More flights by this aircraft type
Origin: KSFO San Francisco Intl
United States
Destination: KSAN San Diego Intl-Lindbergh
United States
More flights between these airports :: More routes between these airports
Route: +OFFSH2 SXC HUBRD1
File this flight plan on PilotEdge
Remarks:
Altitude:
(Current/Filed)
31,000ft
Speed:
(Current/Filed)
450kts
Departed: 24-Aug-19 08:08 PM
Arrived: 24-Aug-19 09:27 PM
Distance/Time
Traveled:
388nm/1:19
Distance/Time
To Go:
Arrived

Flight Plot

Page will automatically refresh every two minutes.

Flight plan parsing failed; only flown route is shown


Map Options




Map Legend


Flown Route
Filed Route
Departure Airport
Arrival Airport
Navaid (VOR, NDB)
Fix

Horizontal Profiles

Position Reports

Time Latitude Longitude Heading Altitude Ground
Speed
24-Aug-19 19:39 37.612674 -122.384664 6 35ft 0kts
24-Aug-19 19:40 37.612674 -122.384664 6 35ft 0kts
24-Aug-19 19:41 37.612674 -122.384664 6 35ft 0kts
24-Aug-19 19:42 37.612674 -122.384664 6 35ft 0kts
24-Aug-19 19:43 37.612674 -122.384664 6 35ft 0kts
24-Aug-19 19:44 37.612674 -122.384664 6 35ft 0kts
24-Aug-19 19:45 37.612674 -122.384664 6 35ft 0kts
24-Aug-19 19:46 37.612674 -122.384664 6 35ft 0kts
24-Aug-19 19:47 37.612674 -122.384664 6 35ft 0kts
24-Aug-19 19:48 37.612674 -122.384664 6 35ft 0kts
24-Aug-19 19:49 37.612674 -122.384664 6 35ft 0kts
24-Aug-19 19:50 37.612674 -122.384664 6 35ft 0kts
24-Aug-19 19:51 37.612674 -122.384664 6 35ft 0kts
24-Aug-19 19:52 37.612674 -122.384664 6 35ft 0kts
24-Aug-19 19:53 37.612674 -122.384664 6 35ft 0kts
24-Aug-19 19:55 37.612484 -122.384690 6 35ft 2kts
24-Aug-19 19:56 37.611886 -122.384773 6 35ft 2kts
24-Aug-19 19:57 37.611330 -122.385014 48 35ft 2kts
24-Aug-19 19:58 37.611198 -122.385341 77 35ft 0kts
24-Aug-19 19:59 37.611198 -122.385341 77 35ft 0kts
24-Aug-19 20:00 37.611198 -122.385341 77 35ft 0kts
24-Aug-19 20:01 37.611198 -122.385341 77 35ft 0kts
24-Aug-19 20:02 37.611198 -122.385341 77 35ft 0kts
24-Aug-19 20:03 37.611218 -122.383673 127 35ft 11kts
24-Aug-19 20:04 37.608523 -122.384004 115 33ft 5kts
24-Aug-19 20:05 37.608476 -122.383885 117 33ft 0kts
24-Aug-19 20:06 37.608476 -122.383885 117 33ft 0kts
24-Aug-19 20:07 37.609370 -122.381961 27 33ft 37kts
24-Aug-19 20:08 37.645303 -122.365788 346 1132ft 177kts
24-Aug-19 20:09 37.702195 -122.374624 309 2999ft 225kts
24-Aug-19 20:10 37.687613 -122.437360 215 5823ft 228kts
24-Aug-19 20:11 37.630496 -122.487734 215 8387ft 269kts
24-Aug-19 20:11 37.578232 -122.538051 216 10501ft 292kts
24-Aug-19 20:13 37.499980 -122.613831 215 12968ft 333kts
24-Aug-19 20:14 37.413961 -122.651473 183 15396ft 347kts
24-Aug-19 20:14 37.332185 -122.651706 178 17318ft 358kts
24-Aug-19 20:16 37.212867 -122.647734 174 19575ft 372kts
24-Aug-19 20:16 37.125780 -122.634392 168 20973ft 380kts
24-Aug-19 20:17 37.021389 -122.604210 162 22635ft 385kts
24-Aug-19 20:19 36.902271 -122.557163 160 24264ft 390kts
24-Aug-19 20:19 36.818934 -122.523858 162 25162ft 397kts
24-Aug-19 20:20 36.710642 -122.487539 165 26178ft 404kts
24-Aug-19 20:21 36.599098 -122.460324 169 27083ft 411kts
24-Aug-19 20:22 36.484431 -122.440310 171 27971ft 415kts
24-Aug-19 20:23 36.370342 -122.423099 171 29012ft 413kts
24-Aug-19 20:24 36.285509 -122.340342 117 29840ft 405kts
24-Aug-19 20:25 36.241336 -122.213582 111 30575ft 406kts
24-Aug-19 20:26 36.200240 -122.087268 114 31057ft 413kts
24-Aug-19 20:27 36.142456 -121.963943 126 31048ft 430kts
24-Aug-19 20:28 36.059728 -121.856652 139 31048ft 444kts
24-Aug-19 20:29 35.958541 -121.763524 143 31047ft 455kts
24-Aug-19 20:30 35.861036 -121.668977 134 31044ft 463kts
24-Aug-19 20:31 35.789133 -121.538118 121 31016ft 463kts
24-Aug-19 20:32 35.716927 -121.407438 127 30995ft 453kts
24-Aug-19 20:33 35.636983 -121.287896 130 31000ft 449kts
24-Aug-19 20:34 35.552844 -121.174569 133 30999ft 448kts
24-Aug-19 20:35 35.466881 -121.069449 138 31005ft 448kts
24-Aug-19 20:36 35.366136 -120.975898 145 31020ft 460kts
24-Aug-19 20:37 35.255133 -120.894160 150 31020ft 474kts
24-Aug-19 20:38 35.137773 -120.817526 151 31016ft 474kts
24-Aug-19 20:39 35.023347 -120.741677 149 31017ft 468kts
24-Aug-19 20:40 34.909577 -120.664961 148 31027ft 462kts
24-Aug-19 20:41 34.808146 -120.596886 147 31026ft 456kts
24-Aug-19 20:42 34.695693 -120.528433 146 31027ft 450kts
24-Aug-19 20:43 34.587574 -120.451102 146 31025ft 446kts
24-Aug-19 20:44 34.480192 -120.373887 144 31022ft 442kts
24-Aug-19 20:45 34.378916 -120.295698 144 31020ft 441kts
24-Aug-19 20:46 34.278978 -120.215037 132 31011ft 437kts
24-Aug-19 20:47 34.215804 -120.091547 116 31006ft 434kts
24-Aug-19 20:48 34.160984 -119.960877 115 30999ft 435kts
24-Aug-19 20:49 34.105281 -119.830047 116 31000ft 436kts
24-Aug-19 20:50 34.044133 -119.702210 119 30998ft 437kts
24-Aug-19 20:51 33.977017 -119.579100 122 30992ft 438kts
24-Aug-19 20:52 33.907572 -119.458363 122 30992ft 435kts
24-Aug-19 20:53 33.841582 -119.339472 120 31002ft 432kts
24-Aug-19 20:54 33.782193 -119.219827 118 30999ft 430kts
24-Aug-19 20:55 33.726915 -119.101394 117 30993ft 389kts
24-Aug-19 20:56 33.671925 -118.988606 119 31004ft 388kts
24-Aug-19 20:57 33.614121 -118.878613 120 30540ft 400kts
24-Aug-19 20:58 33.552936 -118.762880 120 29254ft 414kts
24-Aug-19 20:59 33.492604 -118.646443 120 28291ft 404kts
24-Aug-19 21:00 33.433647 -118.532548 121 26564ft 395kts
24-Aug-19 21:01 33.385940 -118.415535 109 24814ft 387kts
24-Aug-19 21:02 33.358521 -118.293599 91 23062ft 386kts
24-Aug-19 21:03 33.343547 -118.169244 103 21596ft 377kts
24-Aug-19 21:04 33.324898 -118.046471 103 20347ft 372kts
24-Aug-19 21:05 33.307245 -117.924614 102 19170ft 368kts
24-Aug-19 21:06 33.290639 -117.804226 102 17864ft 363kts
24-Aug-19 21:07 33.274588 -117.685099 102 16460ft 359kts
24-Aug-19 21:08 33.240600 -117.575193 120 15392ft 350kts
24-Aug-19 21:09 33.194420 -117.476230 124 14972ft 322kts
24-Aug-19 21:10 33.145670 -117.394860 134 14975ft 282kts
24-Aug-19 21:11 33.070710 -117.353445 165 13417ft 304kts
24-Aug-19 21:12 32.991856 -117.330701 164 12406ft 288kts
24-Aug-19 21:13 32.916540 -117.299990 153 10527ft 280kts
24-Aug-19 21:14 32.848712 -117.260364 153 8517ft 271kts
24-Aug-19 21:15 32.782455 -117.225577 155 6990ft 245kts
24-Aug-19 21:16 32.735091 -117.180890 106 6362ft 211kts
24-Aug-19 21:17 32.730261 -117.115416 89 5629ft 197kts
24-Aug-19 21:18 32.729901 -117.048454 89 4992ft 200kts
24-Aug-19 21:19 32.727388 -116.980235 91 4989ft 208kts
24-Aug-19 21:20 32.684497 -116.946736 206 4354ft 222kts
24-Aug-19 21:21 32.665908 -117.008802 274 3960ft 203kts
24-Aug-19 21:22 32.688747 -117.065661 306 3231ft 168kts
24-Aug-19 21:23 32.711185 -117.107953 297 1993ft 143kts
24-Aug-19 21:24 32.724303 -117.151411 286 702ft 138kts
24-Aug-19 21:25 32.734052 -117.191809 286 22ft 62kts
24-Aug-19 21:26 32.734780 -117.198547 197 22ft 0kts
24-Aug-19 21:27 32.734723 -117.198519 144 22ft 5kts
24-Aug-19 21:28 32.733421 -117.196474 176 22ft 0kts
24-Aug-19 21:29 32.733309 -117.196465 176 22ft 0kts
24-Aug-19 21:30 32.733309 -117.196465 176 22ft 0kts
24-Aug-19 21:31 32.733309 -117.196465 176 22ft 0kts
24-Aug-19 21:32 32.733309 -117.196465 176 22ft 0kts
24-Aug-19 21:33 32.733309 -117.196465 176 22ft 0kts
24-Aug-19 21:34 32.733309 -117.196465 176 22ft 0kts
24-Aug-19 21:35 32.733309 -117.196465 176 22ft 0kts
24-Aug-19 21:36 32.733309 -117.196465 176 22ft 0kts
24-Aug-19 21:37 32.733309 -117.196465 176 22ft 0kts
24-Aug-19 21:38 32.733309 -117.196465 176 22ft 0kts
24-Aug-19 21:39 32.733309 -117.196465 176 22ft 0kts

Navigation Log

Ident Type
Flight plan parsing failed, navigation log unavailable